Date,TemperatureHighF,TemperatureAvgF,TemperatureLowF,DewpointHighF,DewpointAvgF,DewpointLowF,HumidityHigh,HumidityAvg,HumidityLow,PressureMaxIn,PressureMinIn,WindSpeedMaxMPH,WindSpeedAvgMPH,GustSpeedMaxMPH,PrecipitationSumIn
2013-1-1,21.0,13.7,4.4,13.4,7.5,0.9,88,77,56,30.41,30.22,11,3,11,0.00
2013-1-2,33.4,25.4,13.9,29.6,21.2,9.7,87,84,78,30.30,30.14,12,4,12,0.00
2013-1-3,30.4,23.1,17.4,26.9,18.9,13.4,88,84,74,30.48,30.29,20,4,20,0.00
2013-1-4,35.9,22.9,16.4,22.0,17.0,13.9,91,79,55,30.39,30.21,13,4,14,0.00
2013-1-5,31.0,23.2,15.3,24.3,18.4,13.1,94,82,68,30.29,30.05,31,5,31,0.00
2013-1-6,35.7,24.6,14.7,24.9,19.0,11.7,89,80,64,30.40,30.19,24,4,25,0.00
2013-1-7,39.6,32.7,25.6,29.6,26.3,23.0,95,78,65,30.19,29.99,17,4,17,0.00
2013-1-8,40.7,32.0,23.2,31.9,27.5,21.5,95,84,70,30.18,29.89,18,4,20,0.00
2013-1-9,47.6,36.7,26.7,34.1,29.8,23.6,90,77,56,30.48,30.18,12,2,12,0.00
2013-1-10,39.7,36.7,34.1,36.7,31.8,25.7,99,83,59,30.37,29.72,18,4,20,0.11
2013-1-11,52.8,40.7,26.0,47.2,38.6,18.2,100,93,72,29.77,29.40,31,5,33,0.01
2013-1-12,26.0,18.3,10.5,18.8,9.4,3.8,76,68,58,30.21,29.77,31,8,31,0.00
2013-1-13,20.2,13.1,7.0,7.9,4.9,2.1,82,70,53,30.44,30.21,18,4,18,0.00
2013-1-14,27.9,18.1,8.8,14.2,9.7,4.4,85,70,49,30.56,30.43,12,2,13,0.00
2013-1-15,34.8,23.5,13.3,20.4,15.3,9.4,88,72,50,30.44,30.11,16,3,16,0.00
2013-1-16,51.2,36.4,23.9,34.9,27.5,17.1,87,71,50,30.28,29.98,19,6,19,0.00
2013-1-17,32.5,28.3,24.4,31.0,26.9,23.0,98,94,83,30.50,30.28,13,2,14,0.00
2013-1-18,50.7,39.9,27.4,35.1,31.1,26.1,98,72,53,30.34,29.91,22,6,24,0.00
2013-1-19,51.9,40.2,21.5,33.3,28.1,13.5,78,63,46,30.38,29.88,29,8,29,0.00
2013-1-20,21.5,16.4,13.3,14.1,8.5,4.5,81,71,53,30.50,30.35,18,4,19,0.00
2013-1-21,14.8,9.9,3.8,10.0,-1.5,-6.7,81,60,49,30.56,30.47,23,5,27,0.00
2013-1-22,20.4,13.7,8.7,12.6,7.8,-0.1,86,77,62,30.50,30.34,11,2,11,0.00
2013-1-23,28.7,17.7,10.1,99.9,16.4,2.1,87,75,63,30.60,30.26,19,5,19,0.00
2013-1-24,18.8,10.4,0.9,7.2,-0.3,-7.5,70,62,53,30.65,30.28,18,5,18,0.00
2013-1-25,47.2,29.1,15.8,29.1,18.6,6.9,83,65,45,30.31,30.21,16,3,16,0.00
2013-1-26,47.2,31.2,16.8,28.4,21.3,10.9,83,68,47,30.31,30.05,19,6,19,0.00
2013-1-27,42.1,38.4,34.7,41.8,36.3,25.6,100,93,60,30.05,29.71,17,5,18,0.17
2013-1-28,44.7,38.6,33.0,44.7,38.6,33.0,100,100,100,29.90,29.57,12,3,12,0.02
2013-1-29,40.7,33.7,30.0,40.7,32.1,28.5,100,94,86,29.73,29.57,27,6,30,0.00
2013-1-30,30.0,22.3,15.0,28.9,17.3,9.1,98,81,66,30.01,29.66,29,8,30,0.00
2013-1-31,15.0,7.0,0.2,9.4,-0.9,-6.3,80,69,58,30.55,30.01,29,8,29,0.00